createdAt,value
2018-06-16T00:00:40.119Z,81.71
2018-06-16T00:01:40.118Z,79.53
2018-06-16T00:02:40.129Z,81.61
2018-06-16T00:03:40.125Z,82.63
2018-06-16T00:04:40.121Z,84.03
2018-06-16T00:05:40.124Z,83.20
2018-06-16T00:06:40.128Z,81.81
2018-06-16T00:07:40.140Z,82.53
2018-06-16T00:08:40.173Z,84.36
2018-06-16T00:09:40.136Z,85.47
2018-06-16T00:10:40.137Z,84.17
2018-06-16T00:11:40.146Z,82.24
2018-06-16T00:12:40.133Z,81.90
2018-06-16T00:13:40.176Z,81.13
2018-06-16T00:14:40.148Z,80.46
2018-06-16T00:15:40.146Z,82.24
2018-06-16T00:16:40.177Z,81.76
2018-06-16T00:17:40.151Z,81.52
2018-06-16T00:18:40.151Z,81.76
2018-06-16T00:19:40.158Z,82.34
2018-06-16T00:20:40.158Z,82.05
2018-06-16T00:21:40.150Z,81.99
2018-06-16T00:22:40.163Z,81.61
2018-06-16T00:23:40.174Z,79.98
2018-06-16T00:24:40.166Z,80.27
2018-06-16T00:25:40.158Z,80.61
2018-06-16T00:26:40.165Z,82.10
2018-06-16T00:27:40.176Z,82.87
2018-06-16T00:28:40.172Z,81.38
2018-06-16T00:29:40.179Z,79.79
2018-06-16T00:30:40.172Z,80.71
2018-06-16T00:31:40.175Z,82.15
2018-06-16T00:32:40.183Z,80.61
2018-06-16T00:33:40.180Z,81.92
2018-06-16T00:34:40.195Z,84.27
2018-06-16T00:35:40.212Z,85.42
2018-06-16T00:36:40.223Z,85.91
2018-06-16T00:37:40.181Z,85.71
2018-06-16T00:38:40.186Z,84.85
2018-06-16T00:39:40.192Z,86.44
2018-06-16T00:40:40.189Z,86.72
2018-06-16T00:41:40.193Z,86.44
2018-06-16T00:42:40.194Z,85.33
2018-06-16T00:43:40.205Z,84.95
2018-06-16T00:44:40.213Z,86.82
2018-06-16T00:45:40.203Z,86.34
2018-06-16T00:46:40.205Z,84.66
2018-06-16T00:47:40.201Z,85.04
2018-06-16T00:48:40.214Z,86.05
2018-06-16T00:49:40.203Z,86.54
2018-06-16T00:50:40.207Z,85.04
2018-06-16T00:51:40.211Z,83.26
2018-06-16T00:52:40.230Z,83.07
2018-06-16T00:53:40.234Z,82.20
2018-06-16T00:54:40.224Z,81.53
2018-06-16T00:55:40.224Z,83.36
2018-06-16T00:56:40.230Z,83.98
2018-06-16T00:57:40.227Z,85.77
2018-06-16T00:58:40.225Z,84.27
2018-06-16T00:59:40.223Z,82.59
2018-06-16T01:00:40.228Z,83.80
2018-06-16T01:01:40.229Z,84.75
2018-06-16T01:02:40.228Z,85.81
2018-06-16T01:03:40.232Z,84.95
2018-06-16T01:04:40.242Z,85.14
2018-06-16T01:05:40.242Z,83.64
2018-06-16T01:06:40.231Z,83.70
2018-06-16T01:07:40.240Z,84.66
2018-06-16T01:08:40.243Z,86.05
2018-06-16T01:09:40.256Z,87.21
2018-06-16T01:10:40.242Z,86.72
2018-06-16T01:11:40.248Z,86.72
2018-06-16T01:12:40.264Z,87.59
2018-06-16T01:13:40.261Z,87.59
2018-06-16T01:14:40.245Z,87.30
2018-06-16T01:15:40.278Z,87.78
2018-06-16T01:16:40.289Z,87.59
2018-06-16T01:17:40.250Z,88.02
2018-06-16T01:18:40.251Z,89.47
2018-06-16T01:19:40.254Z,89.65
2018-06-16T01:20:40.256Z,89.56
2018-06-16T01:21:40.257Z,87.78
2018-06-16T01:22:40.260Z,88.22
2018-06-16T01:23:40.266Z,88.51
2018-06-16T01:24:40.262Z,87.98
2018-06-16T01:25:40.274Z,87.49
2018-06-16T01:26:40.267Z,86.44
2018-06-16T01:27:40.269Z,83.36
2018-06-16T01:28:40.272Z,82.59
2018-06-16T01:29:40.271Z,83.80
2018-06-16T01:30:40.306Z,86.15
2018-06-16T01:31:40.279Z,85.77
2018-06-16T01:32:40.353Z,85.48
2018-06-16T01:33:40.284Z,85.67
2018-06-16T01:34:40.272Z,86.15
2018-06-16T01:35:40.304Z,85.04
2018-06-16T01:36:40.295Z,82.87
2018-06-16T01:37:40.283Z,82.20
2018-06-16T01:38:40.312Z,82.59
2018-06-16T01:39:40.291Z,81.82
2018-06-16T01:40:40.285Z,81.63
2018-06-16T01:41:40.296Z,84.18
2018-06-16T01:42:40.293Z,84.27
2018-06-16T01:43:40.305Z,84.47
2018-06-16T01:44:40.290Z,85.38
2018-06-16T01:45:40.299Z,85.38
2018-06-16T01:46:40.292Z,85.42
2018-06-16T01:47:40.299Z,86.25
2018-06-16T01:48:40.325Z,86.34
2018-06-16T01:49:40.316Z,86.34
2018-06-16T01:50:40.307Z,87.07
2018-06-16T01:51:40.325Z,88.12
2018-06-16T01:52:40.312Z,89.71
2018-06-16T01:53:40.360Z,88.60
2018-06-16T01:54:40.324Z,89.13
2018-06-16T01:55:40.307Z,91.86
2018-06-16T01:56:40.306Z,92.06
2018-06-16T01:57:40.306Z,93.11
2018-06-16T01:58:40.307Z,92.06
2018-06-16T01:59:40.308Z,90.47
2018-06-16T02:00:40.312Z,91.24
2018-06-16T02:01:40.314Z,89.18
2018-06-16T02:02:40.315Z,88.89
2018-06-16T02:03:40.328Z,89.08
2018-06-16T02:04:40.355Z,88.60
2018-06-16T02:05:40.328Z,89.47
2018-06-16T02:06:40.318Z,90.38
2018-06-16T02:07:40.330Z,89.08
2018-06-16T02:08:40.329Z,88.41
2018-06-16T02:09:40.352Z,86.44
2018-06-16T02:10:40.320Z,86.63
2018-06-16T02:11:40.329Z,88.41
2018-06-16T02:12:40.339Z,88.60
2018-06-16T02:13:40.320Z,89.13
2018-06-16T02:14:40.318Z,90.14
2018-06-16T02:15:40.325Z,88.70
2018-06-16T02:16:40.325Z,88.84
2018-06-16T02:17:40.327Z,88.70
2018-06-16T02:18:40.320Z,89.71
2018-06-16T02:19:40.327Z,88.60
2018-06-16T02:20:40.329Z,89.71
2018-06-16T02:21:40.341Z,90.95
2018-06-16T02:22:40.340Z,89.18
2018-06-16T02:23:40.344Z,89.90
2018-06-16T02:24:40.364Z,89.80
2018-06-16T02:25:40.337Z,88.22
2018-06-16T02:26:40.342Z,89.23
2018-06-16T02:27:40.337Z,90.95
2018-06-16T02:28:49.027Z,91.58
2018-06-16T02:30:33.753Z,93.30
2018-06-16T02:31:33.792Z,93.21
2018-06-16T02:32:33.726Z,93.21
2018-06-16T02:33:33.742Z,90.67
2018-06-16T02:34:33.763Z,88.02
2018-06-16T02:35:33.752Z,86.05
2018-06-16T02:36:33.738Z,84.61
2018-06-16T02:37:33.736Z,84.66
2018-06-16T02:38:33.776Z,83.12
2018-06-16T02:39:33.734Z,82.84
2018-06-16T02:40:33.734Z,84.81
2018-06-16T02:41:33.746Z,87.07
2018-06-16T02:42:33.735Z,87.45
2018-06-16T02:43:33.732Z,88.31
2018-06-16T02:44:33.739Z,87.16
2018-06-16T02:45:33.733Z,87.55
2018-06-16T02:46:33.739Z,86.05
2018-06-16T02:47:33.740Z,85.48
2018-06-16T02:48:33.736Z,86.40
2018-06-16T02:49:33.742Z,87.98
2018-06-16T02:50:33.826Z,89.13
2018-06-16T02:51:33.779Z,89.66
2018-06-16T02:52:33.741Z,90.19
2018-06-16T02:53:33.785Z,90.38
2018-06-16T02:54:33.737Z,89.23
2018-06-16T02:55:33.749Z,88.84
2018-06-16T02:56:33.740Z,90.53
2018-06-16T02:57:33.745Z,89.51
2018-06-16T02:58:33.750Z,91.00
2018-06-16T02:59:33.740Z,90.81
2018-06-16T03:00:33.747Z,90.33
2018-06-16T03:01:33.745Z,90.57
2018-06-16T03:21:16.928Z,86.11
2018-06-16T03:22:16.903Z,85.58
2018-06-16T03:23:16.904Z,85.72
2018-06-16T03:24:16.898Z,86.11
2018-06-16T03:25:16.905Z,87.21
2018-06-16T03:26:16.903Z,86.93
2018-06-16T03:27:16.888Z,84.81
2018-06-16T03:28:16.891Z,84.04
2018-06-16T03:29:16.884Z,83.18
2018-06-16T03:30:16.881Z,82.89
2018-06-16T03:31:16.881Z,85.15
2018-06-16T03:32:16.873Z,85.72
2018-06-16T03:33:16.875Z,86.83
2018-06-16T03:34:16.877Z,87.50
2018-06-16T03:35:16.877Z,87.98
2018-06-16T03:36:16.876Z,87.21
2018-06-16T03:37:16.875Z,86.49
2018-06-16T03:38:16.881Z,86.11
2018-06-16T03:39:16.882Z,86.21
2018-06-16T03:40:25.515Z,85.72
2018-06-16T03:42:10.286Z,86.58
2018-06-16T03:43:10.281Z,86.49
2018-06-16T03:44:10.273Z,86.97
2018-06-16T03:45:10.292Z,86.49
2018-06-16T03:46:10.294Z,87.26
2018-06-16T03:47:10.332Z,87.16
2018-06-16T03:48:10.276Z,87.84
2018-06-16T03:49:10.276Z,87.98
2018-06-16T03:50:10.275Z,87.84
2018-06-16T03:51:10.276Z,86.05
2018-06-16T03:52:10.302Z,85.10
2018-06-16T03:53:10.299Z,85.96
2018-06-16T03:54:10.283Z,86.11
2018-06-16T03:55:10.276Z,86.58
2018-06-16T03:56:10.280Z,86.68
2018-06-16T03:57:10.282Z,87.60
2018-06-16T03:58:10.290Z,88.56
2018-06-16T03:59:10.293Z,89.13
2018-06-16T04:00:10.288Z,90.43
2018-06-16T04:01:10.287Z,88.41
2018-06-16T04:02:10.289Z,85.96
2018-06-16T04:03:10.288Z,85.19
2018-06-16T04:04:10.291Z,86.21
2018-06-16T04:05:10.286Z,85.77
2018-06-16T04:06:10.287Z,83.98
2018-06-16T04:07:10.282Z,82.07
2018-06-16T04:08:10.282Z,82.45
2018-06-16T04:09:10.287Z,84.33
2018-06-16T04:10:10.289Z,83.31
2018-06-16T04:11:10.294Z,85.19
2018-06-16T04:12:10.288Z,84.42
2018-06-16T04:13:10.303Z,86.40
2018-06-16T04:14:10.292Z,88.02
2018-06-16T04:15:10.293Z,89.32
2018-06-16T04:16:10.308Z,89.23
2018-06-16T04:17:10.293Z,87.84
2018-06-16T04:18:10.299Z,87.64
2018-06-16T04:19:10.304Z,87.84
2018-06-16T04:20:10.338Z,89.18
2018-06-16T04:21:10.320Z,88.22
2018-06-16T04:22:10.303Z,88.84
2018-06-16T04:23:10.305Z,89.23
2018-06-16T04:24:10.337Z,90.67
2018-06-16T04:25:10.312Z,89.80
2018-06-16T04:26:10.320Z,88.70
2018-06-16T04:27:10.301Z,88.12
2018-06-16T04:28:10.314Z,86.49
2018-06-16T04:29:10.315Z,86.25
2018-06-16T04:30:10.310Z,85.19
2018-06-16T04:31:10.304Z,84.14
2018-06-16T04:32:10.314Z,83.22
2018-06-16T04:33:10.316Z,84.95
2018-06-16T04:34:10.327Z,85.67
2018-06-16T04:35:10.317Z,85.28
2018-06-16T04:36:10.316Z,85.63
2018-06-16T04:37:10.326Z,86.21
2018-06-16T04:38:10.316Z,86.78
2018-06-16T04:39:10.359Z,85.00
2018-06-16T04:40:10.331Z,84.81
2018-06-16T04:41:10.317Z,84.42
2018-06-16T04:42:10.347Z,84.14
2018-06-16T04:43:10.324Z,83.80
2018-06-16T04:44:10.349Z,83.85
2018-06-16T04:45:10.320Z,81.97
2018-06-16T04:46:10.336Z,82.07
2018-06-16T04:47:10.326Z,82.31
2018-06-16T04:48:10.325Z,83.85
2018-06-16T04:49:10.324Z,83.12
2018-06-16T04:50:10.325Z,83.37
2018-06-16T04:51:10.328Z,83.94
2018-06-16T04:52:10.333Z,83.47
2018-06-16T04:53:10.338Z,82.89
2018-06-16T04:54:10.331Z,82.89
2018-06-16T04:55:10.329Z,83.56
2018-06-16T04:56:10.334Z,82.51
2018-06-16T04:57:10.337Z,83.18
2018-06-16T04:58:10.339Z,85.00
2018-06-16T04:59:10.345Z,86.21
2018-06-16T05:00:10.379Z,86.30
2018-06-16T05:01:10.344Z,86.21
2018-06-16T05:02:10.340Z,85.38
2018-06-16T05:03:10.362Z,85.72
2018-06-16T05:04:10.339Z,85.53
2018-06-16T05:05:10.344Z,86.11
2018-06-16T05:06:10.347Z,86.01
2018-06-16T05:07:10.346Z,85.53
2018-06-16T05:08:10.358Z,86.21
2018-06-16T05:09:10.364Z,86.40
2018-06-16T05:10:10.375Z,85.53
2018-06-16T05:11:10.357Z,85.53
2018-06-16T05:12:10.369Z,86.49
2018-06-16T05:13:10.361Z,86.78
2018-06-16T05:14:10.352Z,86.78
2018-06-16T05:15:10.352Z,85.48
2018-06-16T05:16:10.356Z,85.38
2018-06-16T05:17:10.358Z,85.25
2018-06-16T05:18:10.362Z,86.40
2018-06-16T05:19:10.368Z,86.25
2018-06-16T05:20:10.364Z,85.48
2018-06-16T05:21:10.365Z,84.33
2018-06-16T05:22:10.368Z,84.61
2018-06-16T05:23:10.385Z,85.48
2018-06-16T05:24:10.409Z,86.25
2018-06-16T05:25:10.379Z,85.77
2018-06-16T05:26:10.375Z,86.15
2018-06-16T05:27:10.379Z,86.25
2018-06-16T05:28:10.378Z,86.40
2018-06-16T05:29:10.383Z,87.49
2018-06-16T05:30:10.392Z,88.31
2018-06-16T05:31:10.388Z,86.54
2018-06-16T05:32:10.411Z,86.05
2018-06-16T05:33:10.383Z,84.95
2018-06-16T05:34:10.384Z,84.33
2018-06-16T05:35:10.388Z,85.19
2018-06-16T05:36:10.387Z,84.66
2018-06-16T05:37:10.389Z,85.58
2018-06-16T05:38:10.392Z,86.54
2018-06-16T05:39:10.403Z,86.54
2018-06-16T05:40:10.391Z,86.54
2018-06-16T05:41:10.401Z,85.77
2018-06-16T05:42:10.398Z,86.34
2018-06-16T05:43:10.396Z,86.15
2018-06-16T05:44:10.397Z,86.15
2018-06-16T05:46:42.535Z,84.37
2018-06-16T05:47:32.456Z,84.37
2018-06-16T05:48:32.444Z,84.85
2018-06-16T05:49:32.444Z,84.95
2018-06-16T05:50:32.449Z,82.59
2018-06-16T05:51:32.455Z,82.01
2018-06-16T05:52:32.450Z,82.20
2018-06-16T05:53:32.452Z,81.92
2018-06-16T05:54:32.463Z,82.68
2018-06-16T05:55:32.468Z,83.84
2018-06-16T05:56:32.468Z,84.37
2018-06-16T05:57:32.459Z,84.85
2018-06-16T05:58:32.473Z,85.14
2018-06-16T05:59:32.469Z,85.24
2018-06-16T06:00:32.540Z,84.85
2018-06-16T06:01:32.464Z,84.47
2018-06-16T06:02:32.466Z,84.56
2018-06-16T06:03:32.472Z,84.37
2018-06-16T06:04:32.484Z,84.47
2018-06-16T06:05:32.471Z,84.85
2018-06-16T06:06:32.475Z,84.31
2018-06-16T06:07:32.490Z,83.54
2018-06-16T06:08:32.489Z,83.54
2018-06-16T06:09:32.487Z,83.84
2018-06-16T06:10:32.526Z,84.41
2018-06-16T06:11:32.498Z,84.03
2018-06-16T06:12:32.516Z,83.74
2018-06-16T06:13:32.499Z,83.74
2018-06-16T06:14:32.491Z,84.31
2018-06-16T06:15:32.501Z,83.84
2018-06-16T06:16:32.509Z,83.98
2018-06-16T06:17:32.512Z,83.07
2018-06-16T06:18:32.500Z,82.40
2018-06-16T06:19:32.506Z,82.97
2018-06-16T06:20:32.512Z,83.54
2018-06-16T06:21:32.511Z,82.78
2018-06-16T06:22:32.515Z,83.54
2018-06-16T06:23:32.518Z,82.97
2018-06-16T06:24:32.556Z,83.54
2018-06-16T06:25:32.516Z,84.31
2018-06-16T06:26:32.521Z,83.45
2018-06-16T06:27:32.528Z,84.22
2018-06-16T06:28:32.537Z,84.03
2018-06-16T06:29:32.529Z,84.03
2018-06-16T06:30:32.533Z,83.78
2018-06-16T06:31:32.534Z,83.64
2018-06-16T06:32:32.542Z,84.60
2018-06-16T06:33:32.544Z,84.31
2018-06-16T06:34:32.539Z,83.64
2018-06-16T06:35:32.555Z,82.40
2018-06-16T06:36:32.552Z,81.67
2018-06-16T06:37:32.549Z,81.76
2018-06-16T06:38:32.553Z,81.48
2018-06-16T06:39:32.565Z,81.67
2018-06-16T06:40:32.584Z,81.38
2018-06-16T06:41:32.561Z,81.57
2018-06-16T06:42:32.564Z,82.24
2018-06-16T06:43:32.571Z,81.57
2018-06-16T06:44:32.566Z,82.05
2018-06-16T06:45:32.569Z,81.57
2018-06-16T06:46:32.577Z,81.48
2018-06-16T06:47:32.582Z,81.86
2018-06-16T06:48:32.590Z,81.90
2018-06-16T06:49:32.593Z,80.94
2018-06-16T06:50:32.585Z,80.27
2018-06-16T06:51:32.591Z,80.04
2018-06-16T06:52:32.592Z,79.88
2018-06-16T06:53:32.591Z,80.17
2018-06-16T06:54:32.589Z,80.71
2018-06-16T06:55:32.604Z,81.57
2018-06-16T06:56:32.602Z,81.86
2018-06-16T06:57:32.603Z,81.71
2018-06-16T06:58:32.608Z,79.98
2018-06-16T06:59:32.613Z,79.98
2018-06-16T07:00:32.617Z,80.17
2018-06-16T07:01:32.624Z,80.94
2018-06-16T07:02:32.633Z,81.04
2018-06-16T07:03:32.626Z,80.11
2018-06-16T07:04:32.629Z,79.82
2018-06-16T07:05:32.633Z,79.82
2018-06-16T07:06:32.641Z,79.53
2018-06-16T07:07:32.641Z,79.05
2018-06-16T07:08:32.658Z,79.05
2018-06-16T07:09:32.736Z,79.05
2018-06-16T07:10:32.674Z,78.09
2018-06-16T07:11:32.653Z,78.13
2018-06-16T07:12:32.707Z,78.61
2018-06-16T07:13:32.663Z,78.90
2018-06-16T07:14:32.671Z,78.90
2018-06-16T07:15:32.672Z,78.52
2018-06-16T07:16:32.677Z,79.28
2018-06-16T07:17:32.682Z,79.10
2018-06-16T07:18:32.685Z,78.71
2018-06-16T07:19:32.702Z,78.23
2018-06-16T07:20:32.818Z,78.61
2018-06-16T07:21:32.691Z,77.56
2018-06-16T07:22:32.709Z,77.08
2018-06-16T07:23:32.789Z,77.56
2018-06-16T07:24:32.701Z,77.31
2018-06-16T07:25:32.705Z,77.01
2018-06-16T07:26:32.711Z,77.75
2018-06-16T07:27:32.710Z,77.75
2018-06-16T07:28:32.717Z,76.92
2018-06-16T07:29:32.728Z,78.27
2018-06-16T07:30:32.733Z,78.42
2018-06-16T07:31:32.734Z,78.13
2018-06-16T07:32:32.744Z,78.23
2018-06-16T07:33:32.752Z,78.03
2018-06-16T07:34:32.744Z,78.13
2018-06-16T07:35:32.761Z,77.78
2018-06-16T07:36:32.759Z,77.40
2018-06-16T07:37:32.770Z,76.73
2018-06-16T07:38:32.768Z,76.06
2018-06-16T07:39:32.778Z,76.25
2018-06-16T07:40:32.786Z,75.67
2018-06-16T07:41:32.786Z,76.34
2018-06-16T07:42:32.784Z,75.76
2018-06-16T07:43:32.796Z,76.34
2018-06-16T07:44:32.805Z,76.53
2018-06-16T07:45:32.827Z,77.21
2018-06-16T07:46:32.816Z,76.63
2018-06-16T07:47:32.815Z,76.18
2018-06-16T07:48:32.850Z,76.18
2018-06-16T07:49:32.830Z,75.32
2018-06-16T07:50:32.825Z,75.23
2018-06-16T07:51:32.844Z,75.23
2018-06-16T07:52:32.935Z,75.71
2018-06-16T07:53:32.839Z,75.51
2018-06-16T07:54:32.851Z,75.51
2018-06-16T07:55:32.900Z,75.99
2018-06-16T07:56:32.903Z,75.90
2018-06-16T07:57:32.899Z,75.42
2018-06-16T07:58:32.896Z,75.61
2018-06-16T07:59:32.947Z,75.84
2018-06-16T08:00:32.905Z,74.88
2018-06-16T08:01:32.932Z,74.88
2018-06-16T08:02:32.893Z,74.97
2018-06-16T08:03:32.894Z,74.68
2018-06-16T08:04:32.939Z,74.10
2018-06-16T08:05:32.915Z,73.57
2018-06-16T08:06:32.973Z,73.57
2018-06-16T08:07:32.917Z,73.37
2018-06-16T08:08:32.966Z,73.08
2018-06-16T08:09:32.989Z,72.89
2018-06-16T08:10:32.981Z,73.18
2018-06-16T08:11:32.929Z,72.60
2018-06-16T08:12:32.940Z,72.60
2018-06-16T08:13:32.973Z,72.69
2018-06-16T08:14:32.973Z,72.12
2018-06-16T08:15:32.954Z,72.31
2018-06-16T08:17:54.045Z,72.60
2018-06-16T08:18:54.027Z,73.08
2018-06-16T08:19:54.045Z,73.66
2018-06-16T08:20:54.056Z,73.75
2018-06-16T08:21:54.041Z,73.95
2018-06-16T08:22:54.040Z,73.47
2018-06-16T08:23:54.057Z,72.79
2018-06-16T08:24:54.068Z,73.27
2018-06-16T08:25:54.085Z,72.99
2018-06-16T08:26:54.076Z,72.69
2018-06-16T08:27:54.100Z,72.79
2018-06-16T08:28:54.105Z,73.62
2018-06-16T08:29:54.091Z,73.62
2018-06-16T08:30:54.095Z,73.82
2018-06-16T08:31:54.086Z,73.58
2018-06-16T08:32:54.095Z,73.33
2018-06-16T08:33:54.139Z,72.95
2018-06-16T08:34:54.111Z,73.05
2018-06-16T08:35:54.117Z,72.18
2018-06-16T08:36:54.118Z,71.25
2018-06-16T08:37:54.127Z,71.54
2018-06-16T08:38:54.130Z,71.06
2018-06-16T08:39:54.134Z,71.06
2018-06-16T08:40:54.180Z,71.34
2018-06-16T08:41:54.164Z,70.57
2018-06-16T08:42:54.202Z,70.76
2018-06-16T08:43:54.153Z,70.57
2018-06-16T08:44:54.173Z,71.44
2018-06-16T08:45:54.192Z,72.21
2018-06-16T08:46:54.181Z,71.15
2018-06-16T08:47:54.182Z,70.28
2018-06-16T08:48:54.185Z,70.28
2018-06-16T08:49:54.194Z,70.09
2018-06-16T08:50:54.196Z,70.28
2018-06-16T08:51:54.225Z,69.80
2018-06-16T08:52:54.209Z,69.23
2018-06-16T08:53:54.211Z,69.23
2018-06-16T08:54:54.216Z,70.09
2018-06-16T08:55:54.263Z,69.61
2018-06-16T08:56:54.239Z,68.93
2018-06-16T08:57:54.238Z,68.59
2018-06-16T08:58:54.235Z,67.33
2018-06-16T08:59:54.244Z,67.91
2018-06-16T09:00:54.245Z,68.87
2018-06-16T09:01:54.277Z,69.42
2018-06-16T09:02:54.256Z,69.51
2018-06-16T09:03:54.260Z,69.55
2018-06-16T09:04:54.264Z,69.16
2018-06-16T09:05:54.279Z,68.52
2018-06-16T09:06:54.280Z,68.39
2018-06-16T09:07:54.308Z,69.16
2018-06-16T09:08:54.331Z,68.29
2018-06-16T09:09:54.305Z,68.13
2018-06-16T09:10:54.295Z,67.75
2018-06-16T09:11:54.304Z,68.81
2018-06-16T09:12:54.310Z,67.81
2018-06-16T09:13:54.312Z,67.91
2018-06-16T09:14:54.322Z,68.23
2018-06-16T09:15:54.372Z,67.55
2018-06-16T09:16:54.331Z,66.49
2018-06-16T09:17:54.337Z,65.91
2018-06-16T09:18:54.354Z,66.11
2018-06-16T09:19:54.352Z,66.49
2018-06-16T09:20:54.359Z,67.07
2018-06-16T09:21:54.371Z,67.65
2018-06-16T09:22:54.369Z,67.75
2018-06-16T09:23:54.375Z,67.85
2018-06-16T09:24:54.383Z,68.52
2018-06-16T09:25:54.388Z,68.62
2018-06-16T09:26:54.402Z,67.65
2018-06-16T09:27:54.419Z,67.07
2018-06-16T09:28:54.410Z,66.59
2018-06-16T09:29:54.404Z,66.72
2018-06-16T09:30:54.416Z,66.14
2018-06-16T09:31:54.422Z,65.75
2018-06-16T09:32:54.436Z,64.89
2018-06-16T09:33:54.454Z,64.50
2018-06-16T09:34:54.448Z,64.89
2018-06-16T09:35:54.460Z,64.79
2018-06-16T09:36:54.472Z,63.92
2018-06-16T09:37:54.470Z,64.31
2018-06-16T09:38:54.475Z,64.89
2018-06-16T09:39:54.470Z,64.31
2018-06-16T09:40:54.476Z,65.75
2018-06-16T09:41:54.516Z,64.21
2018-06-16T09:42:54.505Z,64.89
2018-06-16T09:43:54.520Z,64.79
2018-06-16T09:44:54.534Z,65.85
2018-06-16T09:45:54.498Z,64.31
2018-06-16T09:46:54.513Z,63.73
2018-06-16T09:47:54.514Z,63.24
2018-06-16T09:48:54.518Z,63.53
2018-06-16T09:49:54.555Z,63.63
2018-06-16T09:50:54.559Z,63.34
2018-06-16T09:51:54.547Z,63.43
2018-06-16T09:52:54.582Z,63.05
2018-06-16T09:53:54.556Z,62.37
2018-06-16T09:54:54.558Z,62.18
2018-06-16T09:55:54.562Z,62.08
2018-06-16T09:56:54.597Z,61.80
2018-06-16T09:57:54.601Z,61.83
2018-06-16T09:58:54.582Z,61.92
2018-06-16T09:59:54.586Z,60.67
2018-06-16T10:00:54.605Z,62.82
2018-06-16T10:01:54.610Z,62.82
2018-06-16T10:02:54.603Z,61.95
2018-06-16T10:03:54.608Z,63.37
2018-06-16T10:04:54.664Z,61.57
2018-06-16T10:05:54.625Z,61.34
2018-06-16T10:06:54.651Z,60.57
2018-06-16T10:07:54.648Z,60.38
2018-06-16T10:08:54.680Z,61.41
2018-06-16T10:09:54.653Z,60.73
2018-06-16T10:10:54.694Z,60.57
2018-06-16T10:11:54.671Z,60.44
2018-06-16T10:12:54.731Z,59.96
2018-06-16T10:13:54.676Z,60.25
2018-06-16T10:14:54.756Z,58.73
2018-06-16T10:15:54.968Z,60.76
2018-06-16T10:16:54.709Z,59.41
2018-06-16T10:17:54.695Z,59.63
2018-06-16T10:18:54.711Z,58.95
2018-06-16T10:19:54.727Z,59.44
2018-06-16T10:20:54.720Z,59.83
2018-06-16T10:21:54.724Z,58.67
2018-06-16T10:22:54.739Z,60.50
2018-06-16T10:23:54.760Z,61.37
2018-06-16T10:24:54.744Z,59.53
2018-06-16T10:25:54.752Z,59.22
2018-06-16T10:26:54.752Z,58.35
2018-06-16T10:27:54.765Z,58.95
2018-06-16T10:28:54.794Z,58.18
2018-06-16T10:29:54.800Z,58.54
2018-06-16T10:30:54.783Z,58.93
2018-06-16T10:31:54.787Z,58.93
2018-06-16T10:32:54.811Z,58.06
2018-06-16T10:33:54.805Z,58.25
2018-06-16T10:34:54.807Z,58.15
2018-06-16T10:35:54.824Z,58.15
2018-06-16T10:36:54.824Z,57.03
2018-06-16T10:37:54.835Z,57.38
2018-06-16T10:38:54.836Z,57.96
2018-06-16T10:39:54.873Z,57.48
2018-06-16T10:40:54.872Z,58.06
2018-06-16T10:41:54.864Z,56.32
2018-06-16T10:42:54.861Z,56.45
2018-06-16T10:43:54.863Z,56.25
2018-06-16T10:44:54.884Z,56.45
2018-06-16T10:45:54.924Z,55.57
2018-06-16T10:46:54.880Z,57.60
2018-06-16T10:47:54.883Z,56.47
2018-06-16T10:48:54.892Z,55.31
2018-06-16T10:49:54.895Z,55.31
2018-06-16T10:50:54.904Z,55.02
2018-06-16T10:51:54.935Z,56.05
2018-06-16T10:52:54.921Z,56.15
2018-06-16T10:53:54.930Z,57.21
2018-06-16T10:54:54.935Z,57.51
2018-06-16T10:55:54.943Z,56.05
2018-06-16T10:56:54.939Z,54.25
2018-06-16T10:57:54.964Z,54.05
2018-06-16T10:58:54.954Z,54.35
2018-06-16T10:59:54.973Z,54.25
2018-06-16T11:00:54.964Z,55.11
2018-06-16T11:01:54.975Z,54.75
2018-06-16T11:02:54.996Z,53.69
2018-06-16T11:03:55.005Z,53.41
2018-06-16T11:04:55.022Z,53.11
2018-06-16T11:05:55.027Z,52.44
2018-06-16T11:06:55.006Z,52.24
2018-06-16T11:07:55.015Z,52.66
2018-06-16T11:08:55.049Z,53.02
2018-06-16T11:09:55.032Z,53.28
2018-06-16T11:10:55.055Z,53.19
2018-06-16T11:11:55.079Z,53.19
2018-06-16T11:12:55.060Z,54.05
2018-06-16T11:13:55.056Z,53.96
2018-06-16T11:14:55.062Z,53.86
2018-06-16T11:15:55.106Z,50.89
2018-06-16T11:16:55.080Z,49.73
2018-06-16T11:17:55.086Z,51.76
2018-06-16T11:18:55.088Z,50.43
2018-06-16T11:19:55.097Z,50.52
2018-06-16T11:20:55.112Z,52.17
2018-06-16T11:21:55.114Z,51.88
2018-06-16T11:22:55.205Z,51.68
2018-06-16T11:23:55.186Z,52.46
2018-06-16T11:24:55.208Z,54.27
2018-06-16T11:25:55.184Z,56.11
2018-06-16T11:26:55.144Z,54.88
2018-06-16T11:27:55.219Z,53.72
2018-06-16T11:28:55.178Z,52.49
2018-06-16T11:29:55.182Z,52.66
2018-06-16T11:30:55.200Z,52.17
2018-06-16T11:31:55.179Z,51.01
2018-06-16T11:32:55.218Z,51.78
2018-06-16T11:33:55.194Z,51.62
2018-06-16T11:34:55.230Z,50.35
2018-06-16T11:35:55.282Z,50.07
2018-06-16T11:36:55.218Z,50.74
2018-06-16T11:37:55.217Z,50.45
2018-06-16T11:38:55.235Z,52.49
2018-06-16T11:39:55.237Z,51.62
2018-06-16T11:40:55.305Z,50.07
2018-06-16T11:41:55.266Z,53.17
2018-06-16T11:42:55.256Z,50.26
2018-06-16T11:43:55.268Z,51.62
2018-06-16T11:44:55.285Z,51.13
2018-06-16T11:45:55.293Z,52.10
2018-06-16T11:46:55.287Z,52.68
2018-06-16T11:47:55.305Z,49.87
2018-06-16T11:48:55.324Z,50.26
2018-06-16T11:49:55.314Z,52.39
2018-06-16T11:50:55.329Z,49.97
2018-06-16T11:51:55.331Z,49.97
2018-06-16T11:52:55.343Z,51.13
2018-06-16T11:53:55.342Z,52.00
2018-06-16T11:54:55.352Z,52.61
2018-06-16T11:55:55.365Z,52.51
2018-06-16T11:56:55.373Z,50.67
2018-06-16T11:57:55.372Z,50.96
2018-06-16T11:58:55.379Z,50.96
2018-06-16T11:59:55.391Z,51.74
2018-06-16T12:00:55.400Z,52.78
2018-06-16T12:01:55.452Z,52.29
2018-06-16T12:02:55.410Z,50.87
2018-06-16T12:03:55.446Z,50.67
2018-06-16T12:06:17.503Z,51.52
2018-06-16T12:07:17.462Z,51.16
2018-06-16T12:08:17.551Z,51.13
2018-06-16T12:09:17.528Z,50.45
2018-06-16T12:10:17.545Z,51.52
2018-06-16T12:11:17.513Z,51.52
2018-06-16T12:12:17.503Z,52.39
2018-06-16T12:13:17.517Z,50.67
2018-06-16T12:14:17.519Z,50.67
2018-06-16T12:15:17.530Z,50.77
2018-06-16T12:16:17.539Z,50.77
2018-06-16T12:17:17.541Z,50.87
2018-06-16T12:18:17.560Z,50.48
2018-06-16T12:19:17.558Z,49.63
2018-06-16T12:20:17.564Z,49.82
2018-06-16T12:21:17.635Z,50.02
2018-06-16T12:22:17.575Z,50.87
2018-06-16T12:23:17.600Z,49.80
2018-06-16T12:24:17.659Z,49.90
2018-06-16T12:25:17.636Z,49.99
2018-06-16T12:26:17.608Z,50.77
2018-06-16T12:27:17.621Z,49.90
2018-06-16T12:28:17.626Z,48.66
2018-06-16T12:29:17.636Z,49.22
2018-06-16T12:30:17.645Z,49.51
2018-06-16T12:31:17.650Z,49.70
2018-06-16T12:32:17.697Z,50.09
2018-06-16T12:33:17.662Z,50.89
2018-06-16T12:34:17.685Z,50.48
2018-06-16T12:35:17.687Z,49.63
2018-06-16T12:36:17.755Z,50.60
2018-06-16T12:37:17.726Z,50.50
2018-06-16T12:38:17.731Z,49.61
2018-06-16T12:39:17.747Z,50.12
2018-06-16T12:40:17.728Z,50.12
2018-06-16T12:41:17.754Z,49.73
2018-06-16T12:42:17.742Z,50.09
2018-06-16T12:43:17.758Z,50.50
2018-06-16T12:44:17.780Z,51.67
2018-06-16T12:45:17.774Z,52.54
2018-06-16T12:46:17.784Z,50.89
2018-06-16T12:47:17.788Z,50.79
2018-06-16T12:48:17.797Z,51.18
2018-06-16T12:49:17.846Z,51.21
2018-06-16T12:50:17.819Z,49.27
2018-06-16T12:51:17.851Z,49.46
2018-06-16T12:52:17.819Z,49.95
2018-06-16T12:53:17.828Z,50.60
2018-06-16T12:54:17.885Z,50.72
2018-06-16T12:55:17.854Z,49.27
2018-06-16T12:56:17.891Z,48.88
2018-06-16T12:57:17.944Z,48.85
2018-06-16T12:58:17.917Z,49.44
2018-06-16T12:59:17.926Z,49.05
2018-06-16T13:00:17.897Z,49.34
2018-06-16T13:01:17.891Z,49.82
2018-06-16T13:02:17.900Z,50.02
2018-06-16T13:03:17.928Z,49.99
2018-06-16T13:04:21.475Z,50.12
2018-06-16T13:05:17.982Z,49.34
2018-06-16T13:06:17.928Z,50.02
2018-06-16T13:07:17.980Z,48.76
2018-06-16T13:08:18.028Z,48.83
2018-06-16T13:09:17.994Z,48.57
2018-06-16T13:10:18.149Z,48.08
2018-06-16T13:11:18.060Z,47.91
2018-06-16T13:12:18.056Z,47.72
2018-06-16T13:13:17.994Z,48.95
2018-06-16T13:14:18.066Z,49.05
2018-06-16T13:15:18.174Z,47.89
2018-06-16T13:16:18.046Z,46.26
2018-06-16T13:17:18.030Z,45.68